createdAt,value
2018-06-12T00:00:05.139Z,0.00
2018-06-12T00:01:05.129Z,0.00
2018-06-12T00:02:05.131Z,0.00
2018-06-12T00:03:05.124Z,0.00
2018-06-12T00:04:05.121Z,0.00
2018-06-12T00:05:05.119Z,0.00
2018-06-12T00:06:05.116Z,0.00
2018-06-12T00:07:05.127Z,0.00
2018-06-12T00:08:05.120Z,0.00
2018-06-12T00:09:05.109Z,0.00
2018-06-12T00:10:05.107Z,0.00
2018-06-12T00:11:05.103Z,0.00
2018-06-12T00:12:05.102Z,0.00
2018-06-12T00:13:05.106Z,0.00
2018-06-12T00:14:05.103Z,0.00
2018-06-12T00:15:05.092Z,0.00
2018-06-12T00:16:05.103Z,0.00
2018-06-12T00:17:05.148Z,0.00
2018-06-12T00:18:05.087Z,0.00
2018-06-12T00:19:05.090Z,0.00
2018-06-12T00:20:05.084Z,0.00
2018-06-12T00:21:05.090Z,0.00
2018-06-12T00:22:05.078Z,0.00
2018-06-12T00:23:05.083Z,0.00
2018-06-12T00:24:05.076Z,0.00
2018-06-12T00:25:05.074Z,0.00
2018-06-12T00:26:05.070Z,0.00
2018-06-12T00:27:05.118Z,0.00
2018-06-12T00:28:05.073Z,0.00
2018-06-12T00:29:05.061Z,0.00
2018-06-12T00:30:05.064Z,0.00
2018-06-12T00:31:05.057Z,0.00
2018-06-12T00:32:05.057Z,0.00
2018-06-12T00:33:05.067Z,0.00
2018-06-12T00:34:05.051Z,0.00
2018-06-12T00:35:05.053Z,0.00
2018-06-12T00:36:05.047Z,0.00
2018-06-12T00:37:05.054Z,0.00
2018-06-12T00:38:05.047Z,0.00
2018-06-12T00:39:05.041Z,0.00
2018-06-12T00:40:05.107Z,0.00
2018-06-12T00:41:05.034Z,0.00
2018-06-12T00:42:05.034Z,0.00
2018-06-12T00:43:05.037Z,0.00
2018-06-12T00:44:05.026Z,0.00
2018-06-12T00:45:05.036Z,0.00
2018-06-12T00:46:05.032Z,0.00
2018-06-12T00:47:05.029Z,0.00
2018-06-12T00:48:05.022Z,0.00
2018-06-12T00:49:05.017Z,0.00
2018-06-12T00:50:05.058Z,0.00
2018-06-12T00:51:05.021Z,0.00
2018-06-12T00:52:05.023Z,0.00
2018-06-12T00:53:05.011Z,0.00
2018-06-12T00:54:05.007Z,0.00
2018-06-12T00:55:05.011Z,0.00
2018-06-12T00:56:05.001Z,0.00
2018-06-12T00:57:05.000Z,0.00
2018-06-12T00:58:04.998Z,0.00
2018-06-12T00:59:04.993Z,0.00
2018-06-12T01:00:05.040Z,0.00
2018-06-12T01:01:04.998Z,0.00
2018-06-12T01:02:04.991Z,0.00
2018-06-12T01:03:04.987Z,0.00
2018-06-12T01:04:04.992Z,0.00
2018-06-12T01:05:04.981Z,0.00
2018-06-12T01:06:04.993Z,0.00
2018-06-12T01:07:05.011Z,0.00
2018-06-12T01:08:04.981Z,0.00
2018-06-12T01:09:04.975Z,0.00
2018-06-12T01:10:04.975Z,0.00
2018-06-12T01:11:04.981Z,0.00
2018-06-12T01:12:04.974Z,0.00
2018-06-12T01:13:04.964Z,0.00
2018-06-12T01:14:04.967Z,0.00
2018-06-12T01:15:04.968Z,0.00
2018-06-12T01:16:04.961Z,0.00
2018-06-12T01:17:04.961Z,0.00
2018-06-12T01:18:04.962Z,0.00
2018-06-12T01:19:04.955Z,0.00
2018-06-12T01:20:04.955Z,0.00
2018-06-12T01:21:04.946Z,0.00
2018-06-12T01:22:04.950Z,0.00
2018-06-12T01:23:05.031Z,0.00
2018-06-12T01:24:04.948Z,0.00
2018-06-12T01:25:04.943Z,0.00
2018-06-12T01:26:04.946Z,0.00
2018-06-12T01:27:04.941Z,0.00
2018-06-12T01:28:04.938Z,0.00
2018-06-12T01:29:04.932Z,0.00
2018-06-12T01:30:04.934Z,0.00
2018-06-12T01:31:04.927Z,0.00
2018-06-12T01:32:04.929Z,0.00
2018-06-12T01:33:04.928Z,0.00
2018-06-12T01:34:04.924Z,0.00
2018-06-12T01:35:04.918Z,0.00
2018-06-12T01:36:04.917Z,0.00
2018-06-12T01:37:04.916Z,0.00
2018-06-12T01:38:04.915Z,0.00
2018-06-12T01:39:04.910Z,0.00
2018-06-12T01:40:04.920Z,0.00
2018-06-12T01:41:04.922Z,0.00
2018-06-12T01:42:04.915Z,0.00
2018-06-12T01:43:04.966Z,0.00
2018-06-12T01:44:04.911Z,0.00
2018-06-12T01:45:04.898Z,0.00
2018-06-12T01:46:04.934Z,0.00
2018-06-12T01:47:04.895Z,0.00
2018-06-12T01:48:04.896Z,0.00
2018-06-12T01:49:04.890Z,0.00
2018-06-12T01:50:04.888Z,0.00
2018-06-12T01:51:04.895Z,0.00
2018-06-12T01:52:04.884Z,0.00
2018-06-12T01:53:04.888Z,0.00
2018-06-12T01:54:04.888Z,0.00
2018-06-12T01:55:04.877Z,0.00
2018-06-12T01:56:04.924Z,0.00
2018-06-12T01:57:04.874Z,0.00
2018-06-12T01:58:04.872Z,0.00
2018-06-12T01:59:04.868Z,0.00
2018-06-12T02:00:04.880Z,0.00
2018-06-12T02:01:04.865Z,0.00
2018-06-12T02:02:04.871Z,0.00
2018-06-12T02:03:04.863Z,0.00
2018-06-12T02:04:04.859Z,0.00
2018-06-12T02:05:04.863Z,0.00
2018-06-12T02:06:04.855Z,0.00
2018-06-12T02:07:04.852Z,0.00
2018-06-12T02:08:04.857Z,0.00
2018-06-12T02:09:04.851Z,0.00
2018-06-12T02:10:04.850Z,0.00
2018-06-12T02:11:04.850Z,0.00
2018-06-12T02:12:04.851Z,0.00
2018-06-12T02:13:04.845Z,0.00
2018-06-12T02:14:04.840Z,0.00
2018-06-12T02:15:04.845Z,0.00
2018-06-12T02:16:04.831Z,0.00
2018-06-12T02:17:04.835Z,0.00
2018-06-12T02:18:04.828Z,0.00
2018-06-12T02:19:04.828Z,0.00
2018-06-12T02:20:04.824Z,0.00
2018-06-12T02:21:04.826Z,0.00
2018-06-12T02:22:04.824Z,0.00
2018-06-12T02:23:04.815Z,0.00
2018-06-12T02:24:04.822Z,0.00
2018-06-12T02:25:04.815Z,0.00
2018-06-12T02:26:04.855Z,0.00
2018-06-12T02:27:04.807Z,0.00
2018-06-12T02:28:04.804Z,0.00
2018-06-12T02:29:04.847Z,0.00
2018-06-12T02:30:04.803Z,0.00
2018-06-12T02:31:04.798Z,0.00
2018-06-12T02:32:04.796Z,0.00
2018-06-12T02:33:04.795Z,0.00
2018-06-12T02:34:04.800Z,0.00
2018-06-12T02:35:04.790Z,0.00
2018-06-12T02:36:04.815Z,0.00
2018-06-12T02:37:04.798Z,0.00
2018-06-12T02:38:04.783Z,0.00
2018-06-12T02:39:04.813Z,0.00
2018-06-12T02:40:04.783Z,0.00
2018-06-12T02:41:04.775Z,0.00
2018-06-12T02:42:04.783Z,0.00
2018-06-12T02:43:04.781Z,0.00
2018-06-12T02:44:04.769Z,0.00
2018-06-12T02:45:04.775Z,0.00
2018-06-12T02:46:04.765Z,0.00
2018-06-12T02:47:04.765Z,0.00
2018-06-12T02:48:04.773Z,0.00
2018-06-12T02:49:04.761Z,0.00
2018-06-12T02:50:04.765Z,0.00
2018-06-12T02:51:04.753Z,0.00
2018-06-12T02:52:04.758Z,0.00
2018-06-12T02:53:04.757Z,0.00
2018-06-12T02:54:04.759Z,0.00
2018-06-12T02:55:04.755Z,0.00
2018-06-12T02:56:04.750Z,0.00
2018-06-12T02:57:04.751Z,0.00
2018-06-12T02:58:04.739Z,0.00
2018-06-12T02:59:04.771Z,0.00
2018-06-12T03:00:04.747Z,0.00
2018-06-12T03:01:04.740Z,0.00
2018-06-12T03:02:04.768Z,0.00
2018-06-12T03:03:04.740Z,0.00
2018-06-12T03:04:04.725Z,0.00
2018-06-12T03:05:04.723Z,0.00
2018-06-12T03:06:04.721Z,0.00
2018-06-12T03:07:04.721Z,0.00
2018-06-12T03:08:04.714Z,4.00
2018-06-12T03:09:04.727Z,0.00
2018-06-12T03:10:04.711Z,0.00
2018-06-12T03:11:04.717Z,0.00
2018-06-12T03:12:04.744Z,0.00
2018-06-12T03:13:04.710Z,4.00
2018-06-12T03:14:04.702Z,4.00
2018-06-12T03:15:04.709Z,4.00
2018-06-12T03:16:04.710Z,0.00
2018-06-12T03:17:04.701Z,4.00
2018-06-12T03:18:04.694Z,0.00
2018-06-12T03:19:04.688Z,4.00
2018-06-12T03:20:04.685Z,4.00
2018-06-12T03:21:04.682Z,4.00
2018-06-12T03:22:04.706Z,4.00
2018-06-12T03:23:04.677Z,4.00
2018-06-12T03:24:04.677Z,4.00
2018-06-12T03:25:04.674Z,4.00
2018-06-12T03:26:04.672Z,8.00
2018-06-12T03:27:04.671Z,4.00
2018-06-12T03:28:04.674Z,4.00
2018-06-12T03:29:04.669Z,8.00
2018-06-12T03:30:04.662Z,4.00
2018-06-12T03:31:04.658Z,8.00
2018-06-12T03:32:04.666Z,8.00
2018-06-12T03:33:04.663Z,12.00
2018-06-12T03:34:04.651Z,12.00
2018-06-12T03:35:04.649Z,12.00
2018-06-12T03:36:04.645Z,12.00
2018-06-12T03:37:04.649Z,16.00
2018-06-12T03:38:04.644Z,16.00
2018-06-12T03:39:04.638Z,16.00
2018-06-12T03:40:04.638Z,24.00
2018-06-12T03:41:04.645Z,28.00
2018-06-12T03:42:04.637Z,32.00
2018-06-12T03:43:04.640Z,36.00
2018-06-12T03:44:04.634Z,36.00
2018-06-12T03:45:04.631Z,40.00
2018-06-12T03:46:04.628Z,40.00
2018-06-12T03:47:04.622Z,48.00
2018-06-12T03:48:04.623Z,52.00
2018-06-12T03:49:04.626Z,60.00
2018-06-12T03:50:04.623Z,64.00
2018-06-12T03:51:04.630Z,68.00
2018-06-12T03:52:04.618Z,76.00
2018-06-12T03:53:04.607Z,80.00
2018-06-12T03:54:04.614Z,88.00
2018-06-12T03:55:04.633Z,92.00
2018-06-12T03:56:04.600Z,100.00
2018-06-12T03:57:04.612Z,108.00
2018-06-12T03:58:04.598Z,108.00
2018-06-12T03:59:04.596Z,104.00
2018-06-12T04:00:04.592Z,112.00
2018-06-12T04:01:04.593Z,120.00
2018-06-12T04:02:04.586Z,124.00
2018-06-12T04:03:04.598Z,128.00
2018-06-12T04:04:04.580Z,128.00
2018-06-12T04:05:04.598Z,124.00
2018-06-12T04:06:04.579Z,120.00
2018-06-12T04:07:04.576Z,120.00
2018-06-12T04:08:04.576Z,120.00
2018-06-12T04:09:04.579Z,124.00
2018-06-12T04:10:04.575Z,128.00
2018-06-12T04:11:04.573Z,136.00
2018-06-12T04:12:04.564Z,140.00
2018-06-12T04:13:04.559Z,144.00
2018-06-12T04:14:04.556Z,148.00
2018-06-12T04:15:04.598Z,156.00
2018-06-12T04:16:04.552Z,156.00
2018-06-12T04:17:04.562Z,160.00
2018-06-12T04:18:04.584Z,172.00
2018-06-12T04:19:04.546Z,164.00
2018-06-12T04:20:04.540Z,164.00
2018-06-12T04:21:04.552Z,168.00
2018-06-12T04:22:04.543Z,176.00
2018-06-12T04:23:04.540Z,188.00
2018-06-12T04:24:04.532Z,192.00
2018-06-12T04:25:04.530Z,200.00
2018-06-12T04:26:04.527Z,200.00
2018-06-12T04:27:04.522Z,196.00
2018-06-12T04:28:04.550Z,208.00
2018-06-12T04:29:04.529Z,220.00
2018-06-12T04:30:04.526Z,220.00
2018-06-12T04:31:04.520Z,212.00
2018-06-12T04:32:04.511Z,208.00
2018-06-12T04:33:04.509Z,208.00
2018-06-12T04:34:04.515Z,204.00
2018-06-12T04:35:04.512Z,200.00
2018-06-12T04:36:04.501Z,196.00
2018-06-12T04:37:04.509Z,200.00
2018-06-12T04:38:04.519Z,204.00
2018-06-12T04:39:04.493Z,208.00
2018-06-12T04:40:04.500Z,208.00
2018-06-12T04:41:04.489Z,208.00
2018-06-12T04:42:04.495Z,204.00
2018-06-12T04:43:04.491Z,200.00
2018-06-12T04:44:04.485Z,200.00
2018-06-12T04:45:04.481Z,204.00
2018-06-12T04:46:04.478Z,204.00
2018-06-12T04:47:04.475Z,208.00
2018-06-12T04:48:04.486Z,208.00
2018-06-12T04:49:04.473Z,204.00
2018-06-12T04:50:04.475Z,208.00
2018-06-12T04:51:04.464Z,216.00
2018-06-12T04:52:04.473Z,216.00
2018-06-12T04:53:04.467Z,220.00
2018-06-12T04:54:04.456Z,220.00
2018-06-12T04:55:04.463Z,216.00
2018-06-12T04:56:04.462Z,220.00
2018-06-12T04:57:04.456Z,224.00
2018-06-12T04:58:04.458Z,232.00
2018-06-12T04:59:04.451Z,236.00
2018-06-12T05:00:04.443Z,244.00
2018-06-12T05:01:04.449Z,252.00
2018-06-12T05:02:04.436Z,264.00
2018-06-12T05:03:04.439Z,284.00
2018-06-12T05:04:04.431Z,300.00
2018-06-12T05:05:04.432Z,316.00
2018-06-12T05:06:04.432Z,324.00
2018-06-12T05:07:04.424Z,332.00
2018-06-12T05:08:04.427Z,340.00
2018-06-12T05:09:04.422Z,344.00
2018-06-12T05:10:04.426Z,352.00
2018-06-12T05:11:04.424Z,356.00
2018-06-12T05:12:04.414Z,360.00
2018-06-12T05:13:04.415Z,360.00
2018-06-12T05:14:04.416Z,368.00
2018-06-12T05:15:04.415Z,380.00
2018-06-12T05:16:04.406Z,392.00
2018-06-12T05:17:04.408Z,404.00
2018-06-12T05:18:04.397Z,424.00
2018-06-12T05:19:04.397Z,444.00
2018-06-12T05:20:04.394Z,464.00
2018-06-12T05:21:04.397Z,484.00
2018-06-12T05:22:04.393Z,508.00
2018-06-12T05:23:04.391Z,524.00
2018-06-12T05:24:04.384Z,536.00
2018-06-12T05:25:04.381Z,540.00
2018-06-12T05:26:04.380Z,544.00
2018-06-12T05:27:04.386Z,564.00
2018-06-12T05:28:04.373Z,580.00
2018-06-12T05:29:04.375Z,596.00
2018-06-12T05:30:04.370Z,604.00
2018-06-12T05:31:04.406Z,608.00
2018-06-12T05:32:04.368Z,608.00
2018-06-12T05:33:04.362Z,612.00
2018-06-12T05:34:04.373Z,600.00
2018-06-12T05:35:04.361Z,596.00
2018-06-12T05:36:04.440Z,612.00
2018-06-12T05:37:04.353Z,608.00
2018-06-12T05:38:04.434Z,624.00
2018-06-12T05:39:04.350Z,620.00
2018-06-12T05:40:04.348Z,652.00
2018-06-12T05:41:04.351Z,676.00
2018-06-12T05:42:04.351Z,692.00
2018-06-12T05:43:04.349Z,740.00
2018-06-12T05:44:04.347Z,784.00
2018-06-12T05:45:04.336Z,816.00
2018-06-12T05:46:04.334Z,840.00
2018-06-12T05:47:04.347Z,872.00
2018-06-12T05:48:04.339Z,904.00
2018-06-12T05:49:04.331Z,924.00
2018-06-12T05:50:04.329Z,944.00
2018-06-12T05:51:04.324Z,980.00
2018-06-12T05:52:04.322Z,1008.00
2018-06-12T05:53:04.319Z,1032.00
2018-06-12T05:54:04.321Z,1064.00
2018-06-12T05:55:04.318Z,1096.00
2018-06-12T05:56:04.319Z,1104.00
2018-06-12T05:57:04.310Z,1124.00
2018-06-12T05:58:04.313Z,1148.00
2018-06-12T05:59:04.306Z,1176.00
2018-06-12T06:00:04.308Z,1200.00
2018-06-12T06:01:04.300Z,1220.00
2018-06-12T06:02:04.309Z,1232.00
2018-06-12T06:03:04.298Z,1240.00
2018-06-12T06:04:04.309Z,1236.00
2018-06-12T06:05:04.294Z,1208.00
2018-06-12T06:06:04.293Z,1176.00
2018-06-12T06:07:04.295Z,1144.00
2018-06-12T06:08:04.296Z,1124.00
2018-06-12T06:09:04.287Z,1116.00
2018-06-12T06:10:04.300Z,1108.00
2018-06-12T06:11:04.282Z,1092.00
2018-06-12T06:12:04.295Z,1092.00
2018-06-12T06:13:04.281Z,1084.00
2018-06-12T06:14:04.292Z,1060.00
2018-06-12T06:15:04.275Z,1004.00
2018-06-12T06:16:04.278Z,928.00
2018-06-12T06:17:04.287Z,896.00
2018-06-12T06:18:04.279Z,872.00
2018-06-12T06:19:04.273Z,856.00
2018-06-12T06:20:04.275Z,824.00
2018-06-12T06:21:04.265Z,796.00
2018-06-12T06:22:04.264Z,780.00
2018-06-12T06:23:04.274Z,780.00
2018-06-12T06:24:04.259Z,784.00
2018-06-12T06:25:04.265Z,808.00
2018-06-12T06:26:04.258Z,840.00
2018-06-12T06:27:04.252Z,852.00
2018-06-12T06:28:04.251Z,868.00
2018-06-12T06:29:04.257Z,896.00
2018-06-12T06:30:04.257Z,928.00
2018-06-12T06:31:04.250Z,1008.00
2018-06-12T06:32:04.242Z,1064.00
2018-06-12T06:33:04.242Z,1104.00
2018-06-12T06:34:04.241Z,1120.00
2018-06-12T06:35:04.246Z,1152.00
2018-06-12T06:36:04.246Z,1228.00
2018-06-12T06:37:04.239Z,1292.00
2018-06-12T06:38:04.234Z,1340.00
2018-06-12T06:39:04.232Z,1396.00
2018-06-12T06:40:04.234Z,1416.00
2018-06-12T06:41:04.234Z,1476.00
2018-06-12T06:42:04.229Z,1520.00
2018-06-12T06:43:04.228Z,1524.00
2018-06-12T06:44:04.233Z,1464.00
2018-06-12T06:45:04.226Z,1396.00
2018-06-12T06:46:04.221Z,1328.00
2018-06-12T06:47:04.226Z,1288.00
2018-06-12T06:48:04.227Z,1240.00
2018-06-12T06:49:04.214Z,1192.00
2018-06-12T06:50:04.216Z,1176.00
2018-06-12T06:51:04.249Z,1188.00
2018-06-12T06:52:04.209Z,1192.00
2018-06-12T06:53:04.209Z,1196.00
2018-06-12T06:54:04.207Z,1184.00
2018-06-12T06:55:04.206Z,1160.00
2018-06-12T06:56:04.204Z,1124.00
2018-06-12T06:57:04.203Z,1096.00
2018-06-12T06:58:04.200Z,1084.00
2018-06-12T06:59:04.204Z,1092.00
2018-06-12T07:00:04.206Z,1120.00
2018-06-12T07:01:04.203Z,1116.00
2018-06-12T07:02:04.197Z,1084.00
2018-06-12T07:03:04.199Z,1060.00
2018-06-12T07:04:04.193Z,1064.00
2018-06-12T07:05:04.198Z,1048.00
2018-06-12T07:06:04.196Z,996.00
2018-06-12T07:07:04.188Z,956.00
2018-06-12T07:08:04.194Z,928.00
2018-06-12T07:09:04.193Z,900.00
2018-06-12T07:10:04.182Z,884.00
2018-06-12T07:11:04.180Z,888.00
2018-06-12T07:12:04.181Z,892.00
2018-06-12T07:13:04.194Z,880.00
2018-06-12T07:14:04.176Z,852.00
2018-06-12T07:15:04.178Z,828.00
2018-06-12T07:16:04.174Z,840.00
2018-06-12T07:17:04.177Z,848.00
2018-06-12T07:18:04.170Z,836.00
2018-06-12T07:19:04.170Z,836.00
2018-06-12T07:20:04.177Z,868.00
2018-06-12T07:21:04.168Z,896.00
2018-06-12T07:22:04.169Z,940.00
2018-06-12T07:23:04.164Z,996.00
2018-06-12T07:24:04.162Z,1020.00
2018-06-12T07:25:04.165Z,1048.00
2018-06-12T07:26:04.161Z,1080.00
2018-06-12T07:27:04.156Z,1100.00
2018-06-12T07:28:04.159Z,1120.00
2018-06-12T07:29:04.156Z,1140.00
2018-06-12T07:30:04.180Z,1144.00
2018-06-12T07:31:04.153Z,1144.00
2018-06-12T07:32:04.156Z,1184.00
2018-06-12T07:33:04.149Z,1208.00
2018-06-12T07:34:04.151Z,1212.00
2018-06-12T07:35:04.147Z,1208.00
2018-06-12T07:36:04.151Z,1200.00
2018-06-12T07:37:04.145Z,1172.00
2018-06-12T07:38:04.145Z,1132.00
2018-06-12T07:39:04.140Z,1128.00
2018-06-12T07:40:04.144Z,1168.00
2018-06-12T07:41:04.146Z,1240.00
2018-06-12T07:42:04.138Z,1324.00
2018-06-12T07:43:04.135Z,1412.00
2018-06-12T07:44:04.143Z,1476.00
2018-06-12T07:45:04.141Z,1508.00
2018-06-12T07:46:04.136Z,1548.00
2018-06-12T07:47:04.140Z,1552.00
2018-06-12T07:48:04.128Z,1564.00
2018-06-12T07:49:04.136Z,1588.00
2018-06-12T07:50:04.133Z,1596.00
2018-06-12T07:51:04.141Z,1604.00
2018-06-12T07:52:04.125Z,1620.00
2018-06-12T07:53:04.127Z,1652.00
2018-06-12T07:54:04.127Z,1680.00
2018-06-12T07:55:04.174Z,1700.00
2018-06-12T07:56:04.121Z,1708.00
2018-06-12T07:57:04.122Z,1708.00
2018-06-12T07:58:04.123Z,1696.00
2018-06-12T07:59:04.123Z,1672.00
2018-06-12T08:00:04.118Z,1648.00
2018-06-12T08:01:04.138Z,1628.00
2018-06-12T08:02:04.122Z,1620.00
2018-06-12T08:03:04.119Z,1628.00
2018-06-12T08:04:04.114Z,1608.00
2018-06-12T08:05:04.114Z,1588.00
2018-06-12T08:06:04.126Z,1596.00
2018-06-12T08:07:04.158Z,1604.00
2018-06-12T08:08:04.111Z,1580.00
2018-06-12T08:09:04.111Z,1560.00
2018-06-12T08:10:04.112Z,1572.00
2018-06-12T08:11:04.111Z,1600.00
2018-06-12T08:12:04.111Z,1612.00
2018-06-12T08:13:04.188Z,1656.00
2018-06-12T08:14:04.110Z,1728.00
2018-06-12T08:15:04.105Z,1784.00
2018-06-12T08:16:04.103Z,1740.00
2018-06-12T08:17:04.111Z,1652.00
2018-06-12T08:18:04.108Z,1648.00
2018-06-12T08:19:04.110Z,1652.00
2018-06-12T08:20:04.101Z,1656.00
2018-06-12T08:21:04.101Z,1692.00
2018-06-12T08:22:04.111Z,1692.00
2018-06-12T08:23:04.100Z,1648.00
2018-06-12T08:24:04.098Z,1668.00
2018-06-12T08:25:04.098Z,1632.00
2018-06-12T08:26:04.105Z,1636.00
2018-06-12T08:27:04.100Z,1648.00
2018-06-12T08:28:04.096Z,1640.00
2018-06-12T08:29:04.100Z,1600.00
2018-06-12T08:30:04.230Z,1588.00
2018-06-12T08:31:04.100Z,1576.00
2018-06-12T08:32:04.098Z,1576.00
2018-06-12T08:33:04.094Z,1568.00
2018-06-12T08:34:04.108Z,1548.00
2018-06-12T08:35:04.093Z,1552.00
2018-06-12T08:36:04.091Z,1520.00
2018-06-12T08:37:04.092Z,1476.00
2018-06-12T08:38:04.100Z,1432.00
2018-06-12T08:39:04.100Z,1444.00
2018-06-12T08:40:04.093Z,1456.00
2018-06-12T08:41:04.098Z,1500.00
2018-06-12T08:42:04.091Z,1524.00
2018-06-12T08:43:04.093Z,1508.00
2018-06-12T08:44:04.101Z,1432.00
2018-06-12T08:45:04.094Z,1308.00
2018-06-12T08:46:04.091Z,1228.00
2018-06-12T08:47:04.085Z,1204.00
2018-06-12T08:48:04.094Z,1188.00
2018-06-12T08:49:04.085Z,1188.00
2018-06-12T08:50:04.087Z,1236.00
2018-06-12T08:51:04.084Z,1292.00
2018-06-12T08:52:04.097Z,1356.00
2018-06-12T08:53:04.083Z,1464.00
2018-06-12T08:54:04.085Z,1636.00
2018-06-12T08:55:04.090Z,1852.00
2018-06-12T08:56:04.085Z,2052.00
2018-06-12T08:57:04.090Z,2248.00
2018-06-12T08:58:04.084Z,2468.00
2018-06-12T08:59:04.090Z,2588.00
2018-06-12T09:00:04.078Z,2656.00
2018-06-12T09:01:04.077Z,2676.00
2018-06-12T09:02:04.077Z,2680.00
2018-06-12T09:03:04.075Z,2700.00
2018-06-12T09:04:04.080Z,2740.00
2018-06-12T09:05:04.083Z,2760.00
2018-06-12T09:06:04.076Z,2740.00
2018-06-12T09:07:04.074Z,2792.00
2018-06-12T09:08:04.076Z,2836.00
2018-06-12T09:09:04.073Z,2848.00
2018-06-12T09:10:04.074Z,2828.00
2018-06-12T09:11:04.084Z,2796.00
2018-06-12T09:12:04.073Z,2760.00
2018-06-12T09:13:04.071Z,2752.00
2018-06-12T09:14:04.073Z,2756.00
2018-06-12T09:15:04.075Z,2764.00
2018-06-12T09:16:04.079Z,2768.00
2018-06-12T09:17:04.075Z,2788.00
2018-06-12T09:18:04.075Z,2808.00
2018-06-12T09:19:04.081Z,2836.00
2018-06-12T09:20:04.071Z,2876.00
2018-06-12T09:21:04.071Z,2912.00
2018-06-12T09:22:04.075Z,2940.00
2018-06-12T09:23:04.069Z,2956.00
2018-06-12T09:24:04.082Z,2964.00
2018-06-12T09:25:04.104Z,2968.00
2018-06-12T09:26:04.093Z,2996.00
2018-06-12T09:27:04.080Z,3024.00
2018-06-12T09:28:04.075Z,3044.00
2018-06-12T09:29:04.081Z,3056.00
2018-06-12T09:30:04.077Z,3072.00
2018-06-12T09:31:04.070Z,3088.00
2018-06-12T09:32:04.072Z,3092.00
2018-06-12T09:33:04.073Z,3100.00
2018-06-12T09:34:04.080Z,3120.00
2018-06-12T09:35:04.083Z,3132.00
2018-06-12T09:36:04.080Z,3140.00
2018-06-12T09:37:04.082Z,3136.00
2018-06-12T09:38:04.077Z,3092.00
2018-06-12T09:39:04.084Z,3032.00
2018-06-12T09:40:04.088Z,2984.00
2018-06-12T09:41:04.082Z,2932.00
2018-06-12T09:42:04.144Z,2856.00
2018-06-12T09:43:04.077Z,2764.00
2018-06-12T09:44:04.078Z,2672.00
2018-06-12T09:45:04.078Z,2596.00
2018-06-12T09:46:04.080Z,2544.00
2018-06-12T09:47:04.088Z,2528.00
2018-06-12T09:48:04.089Z,2516.00
2018-06-12T09:49:04.085Z,2492.00
2018-06-12T09:50:04.086Z,2468.00
2018-06-12T09:51:04.080Z,2448.00
2018-06-12T09:52:04.086Z,2424.00
2018-06-12T09:53:04.080Z,2436.00
2018-06-12T09:54:04.083Z,2448.00
2018-06-12T09:55:04.099Z,2456.00
2018-06-12T09:56:04.085Z,2448.00
2018-06-12T09:57:04.098Z,2444.00
2018-06-12T09:58:04.094Z,2452.00
2018-06-12T09:59:04.093Z,2464.00
2018-06-12T10:00:04.093Z,2488.00
2018-06-12T10:01:04.101Z,2532.00
2018-06-12T10:02:04.091Z,2556.00
2018-06-12T10:03:04.086Z,2572.00
2018-06-12T10:04:04.088Z,2580.00
2018-06-12T10:05:04.099Z,2584.00
2018-06-12T10:06:04.091Z,2560.00
2018-06-12T10:07:04.096Z,2524.00
2018-06-12T10:08:04.094Z,2472.00
2018-06-12T10:09:04.096Z,2412.00
2018-06-12T10:10:04.096Z,2332.00
2018-06-12T10:11:04.094Z,2264.00
2018-06-12T10:12:04.102Z,2200.00
2018-06-12T10:13:04.092Z,2132.00
2018-06-12T10:14:04.097Z,2076.00
2018-06-12T10:15:04.097Z,2024.00
2018-06-12T10:16:04.100Z,1964.00
2018-06-12T10:17:04.094Z,1912.00
2018-06-12T10:18:04.103Z,1872.00
2018-06-12T10:19:04.095Z,1852.00
2018-06-12T10:20:04.101Z,1860.00
2018-06-12T10:21:04.096Z,1884.00
2018-06-12T10:22:04.096Z,1924.00
2018-06-12T10:23:04.099Z,1972.00
2018-06-12T10:24:04.101Z,2020.00
2018-06-12T10:25:04.145Z,2064.00
2018-06-12T10:26:04.097Z,2104.00
2018-06-12T10:27:04.101Z,2128.00
2018-06-12T10:28:04.100Z,2148.00
2018-06-12T10:29:04.106Z,2168.00
2018-06-12T10:30:04.100Z,2208.00
2018-06-12T10:31:04.108Z,2268.00
2018-06-12T10:32:04.104Z,2352.00
2018-06-12T10:33:04.101Z,2452.00
2018-06-12T10:34:04.106Z,2556.00
2018-06-12T10:35:04.103Z,2648.00
2018-06-12T10:36:04.113Z,2704.00
2018-06-12T10:37:04.136Z,2728.00
2018-06-12T10:38:04.099Z,2728.00
2018-06-12T10:39:04.106Z,2748.00
2018-06-12T10:40:04.104Z,2784.00
2018-06-12T10:41:04.101Z,2812.00
2018-06-12T10:42:04.103Z,2856.00
2018-06-12T10:43:04.103Z,2892.00
2018-06-12T10:44:04.104Z,2908.00
2018-06-12T10:45:04.106Z,2908.00
2018-06-12T10:46:04.112Z,2888.00
2018-06-12T10:47:04.103Z,2852.00
2018-06-12T10:48:04.103Z,2804.00
2018-06-12T10:49:04.107Z,2748.00
2018-06-12T10:50:04.206Z,2688.00
2018-06-12T10:51:04.109Z,2640.00
2018-06-12T10:52:04.105Z,2612.00
2018-06-12T10:53:04.108Z,2580.00
2018-06-12T10:54:04.105Z,2548.00
2018-06-12T10:55:04.117Z,2500.00
2018-06-12T10:56:04.104Z,2484.00
2018-06-12T10:57:04.106Z,2488.00
2018-06-12T10:58:04.107Z,2504.00
2018-06-12T10:59:04.114Z,2500.00
2018-06-12T11:00:04.107Z,2508.00
2018-06-12T11:01:04.108Z,2488.00
2018-06-12T11:02:04.113Z,2484.00
2018-06-12T11:03:04.116Z,2472.00
2018-06-12T11:04:04.114Z,2508.00
2018-06-12T11:05:04.111Z,2568.00
2018-06-12T11:06:04.110Z,2644.00
2018-06-12T11:07:04.109Z,2728.00
2018-06-12T11:08:04.128Z,2804.00
2018-06-12T11:09:04.121Z,2840.00
2018-06-12T11:10:04.112Z,2836.00
2018-06-12T11:11:04.121Z,2804.00
2018-06-12T11:12:04.121Z,2764.00
2018-06-12T11:13:04.122Z,2736.00
2018-06-12T11:14:04.116Z,2708.00
2018-06-12T11:15:04.113Z,2656.00
2018-06-12T11:16:04.117Z,2576.00
2018-06-12T11:17:04.118Z,2496.00
2018-06-12T11:18:04.118Z,2460.00
2018-06-12T11:19:04.125Z,2436.00
2018-06-12T11:20:04.130Z,2416.00
2018-06-12T11:21:04.124Z,2388.00
2018-06-12T11:22:04.117Z,2332.00
2018-06-12T11:23:04.132Z,2268.00
2018-06-12T11:24:04.121Z,2272.00
2018-06-12T11:25:04.119Z,2220.00
2018-06-12T11:26:04.133Z,2204.00
2018-06-12T11:27:04.121Z,2220.00
2018-06-12T11:28:04.122Z,2196.00
2018-06-12T11:29:04.128Z,2228.00
2018-06-12T11:30:04.127Z,2392.00
2018-06-12T11:31:04.124Z,2560.00
2018-06-12T11:32:04.127Z,2644.00
2018-06-12T11:33:04.207Z,2816.00
2018-06-12T11:34:04.126Z,2988.00
2018-06-12T11:35:04.124Z,3132.00
2018-06-12T11:36:04.137Z,3296.00
2018-06-12T11:37:04.128Z,3480.00
2018-06-12T11:38:04.131Z,3716.00
2018-06-12T11:39:04.131Z,4196.00
2018-06-12T11:40:04.128Z,4432.00
2018-06-12T11:41:04.125Z,4592.00
2018-06-12T11:42:04.132Z,5088.00
2018-06-12T11:43:04.130Z,4616.00
2018-06-12T11:44:04.131Z,4360.00
2018-06-12T11:45:04.130Z,4052.00
2018-06-12T11:46:04.130Z,3708.00
2018-06-12T11:47:04.136Z,3292.00
2018-06-12T11:48:04.133Z,3148.00
2018-06-12T11:49:04.139Z,3124.00
2018-06-12T11:50:04.136Z,3096.00
2018-06-12T11:51:04.201Z,3168.00
2018-06-12T11:52:04.133Z,3220.00
2018-06-12T11:53:04.145Z,3236.00
2018-06-12T11:54:04.137Z,3120.00
2018-06-12T11:55:04.142Z,2980.00
2018-06-12T11:56:04.145Z,3064.00
2018-06-12T11:57:04.135Z,3172.00
2018-06-12T11:58:04.138Z,3176.00
2018-06-12T11:59:04.144Z,3088.00
2018-06-12T12:00:04.145Z,2984.00
2018-06-12T12:01:04.162Z,2836.00
2018-06-12T12:02:04.143Z,2772.00
2018-06-12T12:03:04.138Z,2700.00
2018-06-12T12:04:04.143Z,2604.00
2018-06-12T12:05:04.143Z,2552.00
2018-06-12T12:06:04.146Z,2656.00
2018-06-12T12:07:04.138Z,2780.00
2018-06-12T12:08:04.148Z,2736.00
2018-06-12T12:09:04.148Z,2688.00
2018-06-12T12:10:04.147Z,2596.00
2018-06-12T12:11:04.145Z,2668.00
2018-06-12T12:12:04.141Z,2712.00
2018-06-12T12:13:04.151Z,2744.00
2018-06-12T12:14:04.145Z,2788.00
2018-06-12T12:15:04.146Z,2860.00
2018-06-12T12:16:04.150Z,2736.00
2018-06-12T12:17:04.188Z,2752.00
2018-06-12T12:18:04.144Z,2680.00
2018-06-12T12:19:04.140Z,2616.00
2018-06-12T12:20:04.143Z,2588.00
2018-06-12T12:21:04.145Z,2572.00
2018-06-12T12:22:04.140Z,2664.00
2018-06-12T12:23:04.146Z,2752.00
2018-06-12T12:24:04.140Z,2780.00
2018-06-12T12:25:04.139Z,2812.00
2018-06-12T12:26:04.144Z,2896.00
2018-06-12T12:27:04.143Z,2980.00
2018-06-12T12:28:04.139Z,2992.00
2018-06-12T12:29:04.152Z,3004.00
2018-06-12T12:30:04.140Z,3028.00
2018-06-12T12:31:04.147Z,3076.00